createdAt,value
2022-10-28T00:01:22.569Z,26.37
2022-10-28T00:03:54.468Z,26.33
2022-10-28T00:06:28.308Z,24.87
2022-10-28T00:08:56.322Z,23.83
2022-10-28T00:11:26.931Z,25.23
2022-10-28T00:13:56.804Z,27.50
2022-10-28T00:16:27.294Z,27.93
2022-10-28T00:18:55.283Z,26.27
2022-10-28T00:21:25.632Z,27.10
2022-10-28T00:23:53.410Z,29.23
2022-10-28T00:26:25.081Z,27.67
2022-10-28T00:29:03.800Z,29.40
2022-10-28T00:31:32.599Z,32.70
2022-10-28T00:34:01.715Z,28.43
2022-10-28T00:36:32.421Z,32.10
2022-10-28T00:39:01.071Z,35.10
2022-10-28T00:41:32.625Z,36.13
2022-10-28T00:44:04.181Z,31.80
2022-10-28T00:46:43.067Z,33.27
2022-10-28T00:49:19.167Z,31.37
2022-10-28T00:51:49.298Z,38.00
2022-10-28T00:54:18.139Z,35.47
2022-10-28T00:56:51.385Z,36.10
2022-10-28T00:59:33.261Z,33.73
2022-10-28T01:02:00.905Z,33.87
2022-10-28T01:04:28.936Z,32.13
2022-10-28T01:06:59.333Z,33.60
2022-10-28T01:09:26.600Z,34.27
2022-10-28T01:12:13.301Z,32.63
2022-10-28T01:14:46.555Z,31.17
2022-10-28T01:17:46.734Z,34.00
2022-10-28T01:20:37.817Z,30.33
2022-10-28T01:23:29.593Z,28.93
2022-10-28T01:26:05.878Z,30.97
2022-10-28T01:28:43.295Z,30.73
2022-10-28T01:31:22.498Z,29.40
2022-10-28T01:34:03.484Z,30.13
2022-10-28T01:36:42.739Z,28.23
2022-10-28T01:39:23.262Z,30.57
2022-10-28T01:41:57.915Z,30.97
2022-10-28T01:44:31.843Z,27.10
2022-10-28T01:47:28.751Z,25.43
2022-10-28T01:50:31.230Z,25.10
2022-10-28T01:53:02.366Z,25.37
2022-10-28T01:55:42.551Z,27.67
2022-10-28T01:58:15.477Z,24.90
2022-10-28T02:00:46.658Z,24.73
2022-10-28T02:03:14.080Z,25.33
2022-10-28T02:05:52.829Z,23.93
2022-10-28T02:08:35.333Z,25.67
2022-10-28T02:11:05.408Z,25.03
2022-10-28T02:14:07.569Z,24.83
2022-10-28T02:17:07.157Z,21.97
2022-10-28T02:19:53.733Z,22.90
2022-10-28T02:23:08.304Z,23.57
2022-10-28T02:25:40.343Z,21.77
2022-10-28T02:28:16.842Z,23.83
2022-10-28T02:31:00.488Z,23.37
2022-10-28T02:33:32.335Z,23.57
2022-10-28T02:36:07.866Z,23.47
2022-10-28T02:38:39.812Z,21.77
2022-10-28T02:41:19.482Z,22.00
2022-10-28T02:43:53.699Z,22.27
2022-10-28T02:46:23.519Z,22.23
2022-10-28T02:48:59.939Z,23.60
2022-10-28T02:51:34.550Z,22.77
2022-10-28T02:54:18.369Z,24.43
2022-10-28T02:56:52.861Z,23.03
2022-10-28T02:59:20.188Z,23.50
2022-10-28T03:01:48.368Z,22.27
2022-10-28T03:04:15.691Z,21.93
2022-10-28T03:06:42.933Z,22.60
2022-10-28T03:09:11.150Z,22.43
2022-10-28T03:11:42.613Z,24.03
2022-10-28T03:14:11.996Z,21.97
2022-10-28T03:16:43.268Z,24.03
2022-10-28T03:19:10.517Z,24.63
2022-10-28T03:21:37.727Z,24.53
2022-10-28T03:24:06.149Z,24.37
2022-10-28T03:26:33.491Z,23.07
2022-10-28T03:29:01.630Z,24.47
2022-10-28T03:31:28.861Z,25.10
2022-10-28T03:33:57.068Z,23.57
2022-10-28T03:36:25.364Z,24.13
2022-10-28T03:38:53.333Z,23.73
2022-10-28T03:41:20.881Z,23.57
2022-10-28T03:43:47.978Z,24.50
2022-10-28T03:46:16.609Z,24.67
2022-10-28T03:48:43.766Z,24.47
2022-10-28T03:51:11.921Z,22.77
2022-10-28T03:53:40.102Z,25.63
2022-10-28T03:56:07.581Z,25.50
2022-10-28T03:58:40.102Z,26.70
2022-10-28T04:01:10.405Z,23.47
2022-10-28T04:03:37.887Z,23.97
2022-10-28T04:06:06.651Z,25.13
2022-10-28T04:08:34.726Z,23.67
2022-10-28T04:11:02.358Z,22.70
2022-10-28T04:13:29.584Z,23.40
2022-10-28T04:15:56.815Z,23.17
2022-10-28T04:18:25.085Z,24.43
2022-10-28T04:20:52.625Z,25.20
2022-10-28T04:23:19.829Z,24.17
2022-10-28T04:25:47.110Z,24.27
2022-10-28T04:28:14.205Z,24.30
2022-10-28T04:30:41.347Z,23.27
2022-10-28T04:33:12.514Z,24.50
2022-10-28T04:35:43.077Z,25.10
2022-10-28T04:38:12.838Z,23.80
2022-10-28T04:40:40.076Z,24.40
2022-10-28T04:43:09.716Z,25.10
2022-10-28T04:45:38.955Z,26.07
2022-10-28T04:48:06.855Z,23.43
2022-10-28T04:50:35.061Z,24.40
2022-10-28T04:53:11.298Z,21.53
2022-10-28T04:55:38.765Z,23.33
2022-10-28T04:58:06.050Z,22.27
2022-10-28T05:00:33.423Z,23.07
2022-10-28T05:03:04.934Z,23.10
2022-10-28T05:05:33.122Z,21.93
2022-10-28T05:08:01.969Z,21.87
2022-10-28T05:10:29.212Z,21.93
2022-10-28T05:12:56.367Z,21.50
2022-10-28T05:15:26.719Z,22.27
2022-10-28T05:17:56.359Z,22.73
2022-10-28T05:20:24.181Z,24.33
2022-10-28T05:22:55.423Z,23.30
2022-10-28T05:25:23.952Z,21.83
2022-10-28T05:27:52.148Z,21.63
2022-10-28T05:30:19.611Z,21.63
2022-10-28T05:32:51.545Z,22.53
2022-10-28T05:35:22.975Z,22.90
2022-10-28T05:37:51.285Z,22.03
2022-10-28T05:40:18.672Z,21.60
2022-10-28T05:42:45.815Z,22.53
2022-10-28T05:45:13.443Z,22.70
2022-10-28T05:47:48.280Z,22.93
2022-10-28T05:50:17.792Z,23.37
2022-10-28T05:52:50.377Z,24.83
2022-10-28T05:55:20.014Z,22.57
2022-10-28T05:57:51.125Z,21.83
2022-10-28T06:00:22.269Z,21.97
2022-10-28T06:02:49.817Z,22.07
2022-10-28T06:05:17.237Z,22.40
2022-10-28T06:07:45.399Z,21.70
2022-10-28T06:10:12.959Z,21.60
2022-10-28T06:12:39.702Z,21.30
2022-10-28T06:15:07.426Z,22.80
2022-10-28T06:17:36.639Z,22.77
2022-10-28T06:20:05.484Z,18.80
2022-10-28T06:22:32.727Z,18.70
2022-10-28T06:24:59.822Z,17.53
2022-10-28T06:27:27.048Z,18.10
2022-10-28T06:29:55.179Z,18.33
2022-10-28T06:32:22.454Z,17.87
2022-10-28T06:34:50.612Z,17.67
2022-10-28T06:37:18.995Z,19.27
2022-10-28T06:39:49.930Z,17.90
2022-10-28T06:42:17.569Z,17.80
2022-10-28T06:44:45.145Z,18.67
2022-10-28T06:47:14.799Z,17.80
2022-10-28T06:49:43.033Z,19.60
2022-10-28T06:52:11.215Z,19.40
2022-10-28T06:54:38.553Z,20.00
2022-10-28T06:57:05.707Z,19.80
2022-10-28T06:59:33.980Z,21.27
2022-10-28T07:02:01.272Z,20.40
2022-10-28T07:04:28.797Z,18.83
2022-10-28T07:06:58.884Z,18.87
2022-10-28T07:09:26.049Z,17.87
2022-10-28T07:11:55.683Z,18.00
2022-10-28T07:14:23.796Z,18.43
2022-10-28T07:16:51.934Z,18.37
2022-10-28T07:19:22.643Z,18.50
2022-10-28T07:21:52.275Z,18.87
2022-10-28T07:24:19.622Z,17.77
2022-10-28T07:26:52.979Z,18.43
2022-10-28T07:29:22.906Z,19.20
2022-10-28T07:31:55.882Z,18.67
2022-10-28T07:34:26.995Z,18.30
2022-10-28T07:36:56.889Z,18.07
2022-10-28T07:39:25.235Z,17.63
2022-10-28T07:41:53.517Z,16.57
2022-10-28T07:44:21.715Z,17.37
2022-10-28T07:46:52.967Z,16.77
2022-10-28T07:49:24.013Z,17.53
2022-10-28T07:51:52.477Z,17.50
2022-10-28T07:54:20.812Z,17.20
2022-10-28T07:56:49.006Z,17.70
2022-10-28T07:59:25.858Z,18.87
2022-10-28T08:01:55.647Z,18.77
2022-10-28T08:04:23.002Z,17.27
2022-10-28T08:06:51.364Z,17.20
2022-10-28T08:09:19.021Z,17.27
2022-10-28T08:11:46.269Z,17.47
2022-10-28T08:14:16.068Z,17.10
2022-10-28T08:16:43.359Z,15.80
2022-10-28T08:19:11.768Z,16.57
2022-10-28T08:21:39.013Z,17.40
2022-10-28T08:24:06.591Z,17.10
2022-10-28T08:26:33.790Z,16.33
2022-10-28T08:29:03.046Z,16.60
2022-10-28T08:31:32.626Z,16.50
2022-10-28T08:33:59.834Z,17.87
2022-10-28T08:36:28.794Z,16.93
2022-10-28T08:39:02.086Z,16.73
2022-10-28T08:41:29.237Z,17.07
2022-10-28T08:44:15.142Z,16.33
2022-10-28T08:47:02.949Z,15.37
2022-10-28T08:49:36.773Z,15.23
2022-10-28T08:52:26.395Z,15.50
2022-10-28T08:55:01.967Z,15.20
2022-10-28T08:57:48.625Z,15.27
2022-10-28T09:00:28.532Z,15.43
2022-10-28T09:03:11.885Z,14.57
2022-10-28T09:05:45.861Z,15.03
2022-10-28T09:08:32.063Z,15.30
2022-10-28T09:11:31.078Z,14.77
2022-10-28T09:14:17.385Z,15.30
2022-10-28T09:16:50.211Z,14.70
2022-10-28T09:19:38.779Z,15.23
2022-10-28T09:22:09.149Z,15.93
2022-10-28T09:24:43.476Z,17.63
2022-10-28T09:27:22.905Z,17.07
2022-10-28T09:30:31.291Z,18.37
2022-10-28T09:33:13.715Z,17.00
2022-10-28T09:35:43.537Z,16.87
2022-10-28T09:38:38.135Z,16.97
2022-10-28T09:41:16.810Z,16.60
2022-10-28T09:44:03.419Z,17.17
2022-10-28T09:46:36.240Z,17.63
2022-10-28T09:49:15.038Z,16.93
2022-10-28T09:51:55.972Z,16.30
2022-10-28T09:54:34.450Z,16.67
2022-10-28T09:57:03.219Z,15.83
2022-10-28T09:59:31.026Z,15.87
2022-10-28T10:01:59.393Z,16.03
2022-10-28T10:04:31.395Z,15.30
2022-10-28T10:07:10.958Z,15.90
2022-10-28T10:09:39.910Z,15.37
2022-10-28T10:12:09.877Z,14.17
2022-10-28T10:14:53.934Z,14.23
2022-10-28T10:17:36.259Z,13.07
2022-10-28T10:20:13.633Z,13.67
2022-10-28T10:22:45.602Z,14.20
2022-10-28T10:25:18.942Z,14.47
2022-10-28T10:27:57.837Z,14.10
2022-10-28T10:30:32.875Z,13.60
2022-10-28T10:33:02.051Z,14.00
2022-10-28T10:35:32.684Z,14.93
2022-10-28T10:38:04.840Z,15.27
2022-10-28T10:40:48.482Z,15.63
2022-10-28T10:43:18.724Z,16.77
2022-10-28T10:46:18.085Z,15.43
2022-10-28T10:48:45.773Z,19.20
2022-10-28T10:51:27.890Z,18.60
2022-10-28T10:54:01.040Z,15.73
2022-10-28T10:56:31.853Z,16.67
2022-10-28T10:59:06.374Z,15.57
2022-10-28T11:01:39.134Z,15.03
2022-10-28T11:04:15.882Z,15.40
2022-10-28T11:06:45.311Z,15.63
2022-10-28T11:09:47.343Z,15.30
2022-10-28T11:12:37.564Z,14.60
2022-10-28T11:15:25.984Z,14.73
2022-10-28T11:18:11.483Z,14.87
2022-10-28T11:20:59.549Z,15.30
2022-10-28T11:23:46.477Z,15.87
2022-10-28T11:26:16.271Z,15.10
2022-10-28T11:29:14.722Z,15.50
2022-10-28T11:31:55.927Z,16.43
2022-10-28T11:34:46.300Z,16.17
2022-10-28T11:37:22.778Z,39.20
2022-10-28T11:40:08.353Z,33.47
2022-10-28T11:42:36.507Z,21.30
2022-10-28T11:45:16.999Z,18.33
2022-10-28T11:47:52.217Z,18.53
2022-10-28T11:50:24.602Z,17.43
2022-10-28T11:53:16.896Z,15.97
2022-10-28T11:55:59.021Z,16.83
2022-10-28T11:58:48.862Z,17.40
2022-10-28T12:01:37.485Z,16.57
2022-10-28T12:04:24.858Z,17.27
2022-10-28T12:07:11.725Z,16.00
2022-10-28T12:10:04.983Z,16.40
2022-10-28T12:12:38.401Z,16.60
2022-10-28T12:15:22.113Z,16.83
2022-10-28T12:18:10.978Z,17.60
2022-10-28T12:20:51.207Z,17.83
2022-10-28T12:23:23.058Z,18.10
2022-10-28T12:25:55.643Z,16.63
2022-10-28T12:28:46.049Z,17.17
2022-10-28T12:31:45.741Z,17.07
2022-10-28T12:34:18.686Z,14.27
2022-10-28T12:37:10.837Z,15.70
2022-10-28T12:40:16.285Z,16.67
2022-10-28T12:42:54.438Z,15.97
2022-10-28T12:45:22.889Z,16.33
2022-10-28T12:48:31.877Z,16.70
2022-10-28T12:51:32.053Z,16.17
2022-10-28T12:54:06.011Z,15.73
2022-10-28T12:56:44.993Z,18.43
2022-10-28T12:59:31.659Z,17.37
2022-10-28T13:02:01.574Z,17.40
2022-10-28T13:04:31.336Z,18.93
2022-10-28T13:07:35.616Z,17.67
2022-10-28T13:10:18.228Z,17.03
2022-10-28T13:12:45.526Z,15.83
2022-10-28T13:15:34.386Z,16.83
2022-10-28T13:18:44.782Z,16.20
2022-10-28T13:21:29.611Z,17.27
2022-10-28T13:24:29.650Z,17.10
2022-10-28T13:27:01.407Z,17.77
2022-10-28T13:29:32.591Z,16.97
2022-10-28T13:32:01.063Z,16.53
2022-10-28T13:34:36.360Z,16.33
2022-10-28T13:37:06.707Z,16.33
2022-10-28T13:39:36.928Z,16.07
2022-10-28T13:42:13.416Z,15.07
2022-10-28T13:44:47.404Z,15.70
2022-10-28T13:47:17.730Z,15.50
2022-10-28T13:50:10.293Z,15.90
2022-10-28T13:52:41.831Z,14.63
2022-10-28T13:55:42.684Z,16.30
2022-10-28T13:58:27.204Z,15.67
2022-10-28T14:00:55.228Z,16.57
2022-10-28T14:03:26.888Z,17.57
2022-10-28T14:06:01.023Z,17.93
2022-10-28T14:08:40.272Z,18.07
2022-10-28T14:11:22.751Z,18.50
2022-10-28T14:13:55.011Z,18.03
2022-10-28T14:16:40.490Z,18.30
2022-10-28T14:19:10.671Z,17.77
2022-10-28T14:22:03.484Z,18.00
2022-10-28T14:24:33.943Z,17.63
2022-10-28T14:27:08.534Z,17.60
2022-10-28T14:30:10.844Z,16.50
2022-10-28T14:32:44.342Z,16.73
2022-10-28T14:35:14.655Z,17.70
2022-10-28T14:38:19.621Z,16.93
2022-10-28T14:40:51.869Z,16.50
2022-10-28T14:43:38.090Z,17.57
2022-10-28T14:46:43.996Z,18.30
2022-10-28T14:49:35.790Z,18.07
2022-10-28T14:52:18.710Z,17.17
2022-10-28T14:54:55.719Z,19.03
2022-10-28T14:57:34.639Z,19.97
2022-10-28T15:00:07.907Z,20.20
2022-10-28T15:02:38.325Z,17.73
2022-10-28T15:05:12.876Z,18.40
2022-10-28T15:07:44.183Z,19.43
2022-10-28T15:10:16.791Z,18.53
2022-10-28T15:12:49.289Z,18.93
2022-10-28T15:15:23.383Z,17.50
2022-10-28T15:17:53.768Z,17.30
2022-10-28T15:20:23.708Z,17.17
2022-10-28T15:22:53.381Z,17.60
2022-10-28T15:25:22.734Z,18.73
2022-10-28T15:27:54.405Z,16.83
2022-10-28T15:30:24.697Z,17.10
2022-10-28T15:32:55.247Z,18.07
2022-10-28T15:35:40.111Z,15.37
2022-10-28T15:38:29.438Z,16.93
2022-10-28T15:40:57.744Z,15.37
2022-10-28T15:43:28.493Z,15.60
2022-10-28T15:46:10.154Z,18.37
2022-10-28T15:48:38.914Z,17.00
2022-10-28T15:51:21.224Z,14.87
2022-10-28T15:54:12.376Z,14.77
2022-10-28T15:56:57.718Z,15.97
2022-10-28T15:59:26.566Z,16.40
2022-10-28T16:01:59.494Z,15.57
2022-10-28T16:04:26.797Z,16.27
2022-10-28T16:06:57.385Z,15.73
2022-10-28T16:09:34.838Z,15.50
2022-10-28T16:12:22.648Z,16.57
2022-10-28T16:15:14.082Z,15.83
2022-10-28T16:17:43.844Z,16.17
2022-10-28T16:20:17.351Z,15.40
2022-10-28T16:22:47.236Z,15.27
2022-10-28T16:25:15.963Z,16.10
2022-10-28T16:27:44.218Z,14.77
2022-10-28T16:30:11.993Z,16.37
2022-10-28T16:32:44.271Z,14.43
2022-10-28T16:35:24.413Z,15.07
2022-10-28T16:37:55.560Z,14.93
2022-10-28T16:40:49.750Z,16.00
2022-10-28T16:43:24.867Z,15.33
2022-10-28T16:45:54.616Z,15.33
2022-10-28T16:48:26.097Z,16.47
2022-10-28T16:51:00.748Z,16.20
2022-10-28T16:53:28.459Z,16.17
2022-10-28T16:55:59.359Z,16.60
2022-10-28T16:58:30.295Z,16.03
2022-10-28T17:00:59.761Z,16.90
2022-10-28T17:03:27.910Z,17.37
2022-10-28T17:05:56.078Z,17.87
2022-10-28T17:08:49.072Z,17.50
2022-10-28T17:11:16.409Z,16.77
2022-10-28T17:13:43.659Z,16.70
2022-10-28T17:16:13.257Z,16.30
2022-10-28T17:18:47.716Z,17.37
2022-10-28T17:21:14.928Z,16.33
2022-10-28T17:23:42.129Z,15.90
2022-10-28T17:26:11.398Z,16.10
2022-10-28T17:28:39.609Z,16.87
2022-10-28T17:31:08.297Z,16.90
2022-10-28T17:33:35.966Z,18.33
2022-10-28T17:36:06.125Z,18.00
2022-10-28T17:38:33.443Z,18.03
2022-10-28T17:41:01.096Z,18.63
2022-10-28T17:43:29.325Z,18.10
2022-10-28T17:46:07.592Z,18.57
2022-10-28T17:48:35.884Z,18.67
2022-10-28T17:51:03.245Z,17.07
2022-10-28T17:53:31.390Z,18.13
2022-10-28T17:55:59.544Z,18.80
2022-10-28T17:58:27.175Z,17.57
2022-10-28T18:01:07.088Z,17.80
2022-10-28T18:03:38.384Z,18.37
2022-10-28T18:06:10.387Z,18.33
2022-10-28T18:08:41.245Z,19.20
2022-10-28T18:11:11.223Z,17.93
2022-10-28T18:13:41.411Z,18.57
2022-10-28T18:16:12.318Z,19.23
2022-10-28T18:18:42.736Z,18.00
2022-10-28T18:21:13.397Z,19.43
2022-10-28T18:23:42.136Z,17.93
2022-10-28T18:26:14.818Z,18.17
2022-10-28T18:28:45.369Z,19.97
2022-10-28T18:31:19.603Z,19.37
2022-10-28T18:33:47.699Z,21.07
2022-10-28T18:36:21.935Z,20.87
2022-10-28T18:38:51.421Z,21.27
2022-10-28T18:41:22.364Z,20.03
2022-10-28T18:43:59.583Z,21.17
2022-10-28T18:46:28.806Z,20.17
2022-10-28T18:48:57.667Z,20.13
2022-10-28T18:51:25.517Z,21.80
2022-10-28T18:53:55.220Z,20.87
2022-10-28T18:56:29.520Z,21.10
2022-10-28T18:58:59.108Z,22.00
2022-10-28T19:01:28.957Z,21.00
2022-10-28T19:03:58.536Z,22.07
2022-10-28T19:06:30.776Z,21.87
2022-10-28T19:09:00.616Z,20.60
2022-10-28T19:11:32.841Z,22.40
2022-10-28T19:14:02.449Z,24.83
2022-10-28T19:16:32.360Z,25.97
2022-10-28T19:19:02.698Z,24.37
2022-10-28T19:21:31.199Z,25.43
2022-10-28T19:24:00.167Z,23.67
2022-10-28T19:26:28.039Z,24.60
2022-10-28T19:28:56.249Z,24.73
2022-10-28T19:31:25.929Z,26.23
2022-10-28T19:33:54.466Z,25.83
2022-10-28T19:36:28.138Z,25.57
2022-10-28T19:38:58.254Z,24.27
2022-10-28T19:41:28.861Z,26.47
2022-10-28T19:43:58.919Z,25.77
2022-10-28T19:46:28.709Z,25.13
2022-10-28T19:48:59.434Z,24.90
2022-10-28T19:51:30.054Z,25.63
2022-10-28T19:53:59.890Z,26.53
2022-10-28T19:56:33.265Z,26.30
2022-10-28T19:59:03.593Z,25.73
2022-10-28T20:01:33.758Z,24.97
2022-10-28T20:04:01.960Z,26.50
2022-10-28T20:06:35.155Z,25.10
2022-10-28T20:09:03.500Z,27.10
2022-10-28T20:11:38.276Z,26.67
2022-10-28T20:14:12.156Z,25.27
2022-10-28T20:16:42.944Z,26.77
2022-10-28T20:19:12.267Z,24.50
2022-10-28T20:21:40.624Z,26.93
2022-10-28T20:24:09.138Z,26.17
2022-10-28T20:26:38.656Z,27.53
2022-10-28T20:29:10.301Z,27.13
2022-10-28T20:31:39.745Z,24.77
2022-10-28T20:34:07.488Z,28.03
2022-10-28T20:36:36.050Z,26.43
2022-10-28T20:39:18.611Z,29.07
2022-10-28T20:41:51.401Z,26.47
2022-10-28T20:44:18.848Z,27.17
2022-10-28T20:46:48.220Z,24.40
2022-10-28T20:49:17.961Z,27.73
2022-10-28T20:51:46.201Z,26.53
2022-10-28T20:54:13.410Z,27.60
2022-10-28T20:56:42.051Z,27.33
2022-10-28T20:59:09.363Z,27.17
2022-10-28T21:01:39.794Z,27.90
2022-10-28T21:04:11.091Z,28.33
2022-10-28T21:06:40.204Z,25.53
2022-10-28T21:09:09.048Z,28.67
2022-10-28T21:11:39.303Z,23.47
2022-10-28T21:14:06.710Z,28.33
2022-10-28T21:16:34.909Z,27.53
2022-10-28T21:19:07.194Z,27.80
2022-10-28T21:21:34.384Z,27.83
2022-10-28T21:24:01.555Z,25.67
2022-10-28T21:26:28.817Z,27.70
2022-10-28T21:28:56.698Z,28.83
2022-10-28T21:31:25.398Z,27.93
2022-10-28T21:33:53.670Z,26.90
2022-10-28T21:36:23.259Z,28.10
2022-10-28T21:38:55.991Z,28.47
2022-10-28T21:41:24.817Z,29.63
2022-10-28T21:43:54.426Z,31.30
2022-10-28T21:46:23.002Z,29.20
2022-10-28T21:48:50.318Z,30.43
2022-10-28T21:51:18.370Z,33.13
2022-10-28T21:53:46.153Z,30.00
2022-10-28T21:56:19.827Z,30.23
2022-10-28T21:58:50.432Z,28.93
2022-10-28T22:01:20.553Z,31.17
2022-10-28T22:03:48.348Z,31.93
2022-10-28T22:06:16.306Z,32.03
2022-10-28T22:08:43.560Z,30.60
2022-10-28T22:11:16.701Z,31.93
2022-10-28T22:13:45.469Z,31.90
2022-10-28T22:16:16.514Z,32.73
2022-10-28T22:18:45.417Z,34.23
2022-10-28T22:21:16.682Z,34.07
2022-10-28T22:23:44.149Z,33.63
2022-10-28T22:26:15.870Z,32.70
2022-10-28T22:28:44.916Z,35.37
2022-10-28T22:31:16.606Z,34.33
2022-10-28T22:36:20.965Z,38.03
2022-10-28T22:38:49.890Z,35.73
2022-10-28T22:41:36.089Z,36.37
2022-10-28T22:44:04.931Z,38.10
2022-10-28T22:46:33.925Z,37.10
2022-10-28T22:49:02.863Z,37.60
2022-10-28T22:51:31.399Z,39.13
2022-10-28T22:53:59.726Z,41.93
2022-10-28T22:56:28.491Z,36.67
2022-10-28T22:58:58.506Z,37.97
2022-10-28T23:01:28.721Z,36.10
2022-10-28T23:03:58.535Z,36.77
2022-10-28T23:06:27.890Z,38.47
2022-10-28T23:08:55.599Z,37.63
2022-10-28T23:11:25.669Z,32.97
2022-10-28T23:13:54.489Z,35.97
2022-10-28T23:16:23.104Z,36.63
2022-10-28T23:18:53.182Z,35.03
2022-10-28T23:21:26.297Z,35.80
2022-10-28T23:24:00.605Z,37.87
2022-10-28T23:26:29.896Z,34.50
2022-10-28T23:28:59.516Z,35.00
2022-10-28T23:31:28.436Z,33.73
2022-10-28T23:33:57.142Z,34.27
2022-10-28T23:36:24.661Z,34.67
2022-10-28T23:38:56.833Z,32.93
2022-10-28T23:41:27.139Z,33.10
2022-10-28T23:43:55.428Z,31.17
2022-10-28T23:46:24.023Z,29.33
2022-10-28T23:48:51.373Z,28.37
2022-10-28T23:51:20.658Z,27.97
2022-10-28T23:53:48.839Z,28.67
2022-10-28T23:56:15.955Z,26.77
2022-10-28T23:58:47.315Z,27.13
